sensor_id;sensor_type;location;lat;lon;timestamp;temperature;humidity
26081;DHT22;13991;51.174;4.438;2023-05-16T00:00:30;11.40;99.90
26081;DHT22;13991;51.174;4.438;2023-05-16T00:03:00;11.50;99.90
26081;DHT22;13991;51.174;4.438;2023-05-16T00:05:27;11.40;99.90
26081;DHT22;13991;51.174;4.438;2023-05-16T00:07:53;11.50;99.90
26081;DHT22;13991;51.174;4.438;2023-05-16T00:10:19;11.40;99.90
26081;DHT22;13991;51.174;4.438;2023-05-16T00:12:44;11.50;99.90
26081;DHT22;13991;51.174;4.438;2023-05-16T00:15:12;11.40;99.90
26081;DHT22;13991;51.174;4.438;2023-05-16T00:17:39;11.50;99.90
26081;DHT22;13991;51.174;4.438;2023-05-16T00:20:05;11.50;99.90
26081;DHT22;13991;51.174;4.438;2023-05-16T00:22:39;11.40;99.90
26081;DHT22;13991;51.174;4.438;2023-05-16T00:25:06;11.50;99.90
26081;DHT22;13991;51.174;4.438;2023-05-16T00:27:34;11.50;99.90
26081;DHT22;13991;51.174;4.438;2023-05-16T00:30:01;11.50;99.90
26081;DHT22;13991;51.174;4.438;2023-05-16T00:32:27;11.50;99.90
26081;DHT22;13991;51.174;4.438;2023-05-16T00:34:53;11.40;99.90
26081;DHT22;13991;51.174;4.438;2023-05-16T00:37:19;11.40;99.90
26081;DHT22;13991;51.174;4.438;2023-05-16T00:39:44;11.40;99.90
26081;DHT22;13991;51.174;4.438;2023-05-16T00:42:10;11.40;99.90
26081;DHT22;13991;51.174;4.438;2023-05-16T00:44:35;11.50;99.90
26081;DHT22;13991;51.174;4.438;2023-05-16T00:47:01;11.40;99.90
26081;DHT22;13991;51.174;4.438;2023-05-16T00:49:28;11.40;99.90
26081;DHT22;13991;51.174;4.438;2023-05-16T00:51:56;11.40;99.90
26081;DHT22;13991;51.174;4.438;2023-05-16T00:54:22;11.40;99.90
26081;DHT22;13991;51.174;4.438;2023-05-16T00:56:51;11.30;99.90
26081;DHT22;13991;51.174;4.438;2023-05-16T00:59:18;11.30;99.90
26081;DHT22;13991;51.174;4.438;2023-05-16T01:01:47;11.30;99.90
26081;DHT22;13991;51.174;4.438;2023-05-16T01:04:16;11.30;99.90
26081;DHT22;13991;51.174;4.438;2023-05-16T01:06:42;11.40;99.90
26081;DHT22;13991;51.174;4.438;2023-05-16T01:09:08;11.40;99.90
26081;DHT22;13991;51.174;4.438;2023-05-16T01:11:49;11.20;99.90
26081;DHT22;13991;51.174;4.438;2023-05-16T01:14:38;11.10;99.90
26081;DHT22;13991;51.174;4.438;2023-05-16T01:17:20;11.20;99.90
26081;DHT22;13991;51.174;4.438;2023-05-16T01:20:02;11.20;99.90
26081;DHT22;13991;51.174;4.438;2023-05-16T01:28:32;11.20;99.90
26081;DHT22;13991;51.174;4.438;2023-05-16T01:30:58;11.20;99.90
26081;DHT22;13991;51.174;4.438;2023-05-16T01:33:25;11.10;99.90
26081;DHT22;13991;51.174;4.438;2023-05-16T01:36:09;11.30;99.90
26081;DHT22;13991;51.174;4.438;2023-05-16T01:38:47;11.30;99.90
26081;DHT22;13991;51.174;4.438;2023-05-16T01:41:22;11.30;99.90
26081;DHT22;13991;51.174;4.438;2023-05-16T01:43:51;11.40;99.90
26081;DHT22;13991;51.174;4.438;2023-05-16T01:46:27;11.30;99.90
26081;DHT22;13991;51.174;4.438;2023-05-16T01:49:14;11.20;99.90
26081;DHT22;13991;51.174;4.438;2023-05-16T01:51:53;11.10;99.90
26081;DHT22;13991;51.174;4.438;2023-05-16T01:54:20;11.10;99.90
26081;DHT22;13991;51.174;4.438;2023-05-16T01:56:51;11.10;99.90
26081;DHT22;13991;51.174;4.438;2023-05-16T01:59:19;11.10;99.90
26081;DHT22;13991;51.174;4.438;2023-05-16T02:01:47;11.20;99.90
26081;DHT22;13991;51.174;4.438;2023-05-16T02:04:13;11.10;99.90
26081;DHT22;13991;51.174;4.438;2023-05-16T02:06:40;11.00;99.90
26081;DHT22;13991;51.174;4.438;2023-05-16T02:09:07;11.00;99.90
26081;DHT22;13991;51.174;4.438;2023-05-16T02:11:33;11.00;99.90
26081;DHT22;13991;51.174;4.438;2023-05-16T02:13:59;11.00;99.90
26081;DHT22;13991;51.174;4.438;2023-05-16T02:16:24;11.20;99.90
26081;DHT22;13991;51.174;4.438;2023-05-16T02:18:50;11.30;99.90
26081;DHT22;13991;51.174;4.438;2023-05-16T02:21:16;11.20;99.90
26081;DHT22;13991;51.174;4.438;2023-05-16T02:23:41;11.10;99.90
26081;DHT22;13991;51.174;4.438;2023-05-16T02:26:07;11.00;99.90
26081;DHT22;13991;51.174;4.438;2023-05-16T02:28:33;11.10;99.90
26081;DHT22;13991;51.174;4.438;2023-05-16T02:30:59;11.00;99.90
26081;DHT22;13991;51.174;4.438;2023-05-16T02:33:27;11.00;99.90
26081;DHT22;13991;51.174;4.438;2023-05-16T02:35:53;11.00;99.90
26081;DHT22;13991;51.174;4.438;2023-05-16T02:38:19;10.90;99.90
26081;DHT22;13991;51.174;4.438;2023-05-16T02:40:48;10.90;99.90
26081;DHT22;13991;51.174;4.438;2023-05-16T02:43:15;10.90;99.90
26081;DHT22;13991;51.174;4.438;2023-05-16T02:45:41;11.00;99.90
26081;DHT22;13991;51.174;4.438;2023-05-16T02:48:08;11.00;99.90
26081;DHT22;13991;51.174;4.438;2023-05-16T02:50:34;11.00;99.90
26081;DHT22;13991;51.174;4.438;2023-05-16T02:53:00;11.10;99.90
26081;DHT22;13991;51.174;4.438;2023-05-16T02:55:27;11.00;99.90
26081;DHT22;13991;51.174;4.438;2023-05-16T02:57:55;10.90;99.90
26081;DHT22;13991;51.174;4.438;2023-05-16T03:00:20;10.90;99.90
26081;DHT22;13991;51.174;4.438;2023-05-16T03:02:46;10.90;99.90
26081;DHT22;13991;51.174;4.438;2023-05-16T03:05:12;10.80;99.90
26081;DHT22;13991;51.174;4.438;2023-05-16T03:07:38;10.80;99.90
26081;DHT22;13991;51.174;4.438;2023-05-16T03:10:04;10.80;99.90
26081;DHT22;13991;51.174;4.438;2023-05-16T03:12:30;10.80;99.90
26081;DHT22;13991;51.174;4.438;2023-05-16T03:14:56;11.00;99.90
26081;DHT22;13991;51.174;4.438;2023-05-16T03:17:22;11.00;99.90
26081;DHT22;13991;51.174;4.438;2023-05-16T03:19:48;10.90;99.90
26081;DHT22;13991;51.174;4.438;2023-05-16T03:22:14;10.90;99.90
26081;DHT22;13991;51.174;4.438;2023-05-16T03:24:40;10.90;99.90
26081;DHT22;13991;51.174;4.438;2023-05-16T03:27:06;10.90;99.90
26081;DHT22;13991;51.174;4.438;2023-05-16T03:29:32;10.90;99.90
26081;DHT22;13991;51.174;4.438;2023-05-16T03:31:58;10.80;99.90
26081;DHT22;13991;51.174;4.438;2023-05-16T03:34:24;10.80;99.90
26081;DHT22;13991;51.174;4.438;2023-05-16T03:36:50;10.80;99.90
26081;DHT22;13991;51.174;4.438;2023-05-16T03:39:16;10.80;99.90
26081;DHT22;13991;51.174;4.438;2023-05-16T03:41:42;10.80;99.90
26081;DHT22;13991;51.174;4.438;2023-05-16T03:44:08;10.70;99.90
26081;DHT22;13991;51.174;4.438;2023-05-16T03:46:34;10.90;99.90
26081;DHT22;13991;51.174;4.438;2023-05-16T03:49:00;11.00;99.90
26081;DHT22;13991;51.174;4.438;2023-05-16T03:51:26;11.00;99.90
26081;DHT22;13991;51.174;4.438;2023-05-16T03:53:53;11.00;99.90
26081;DHT22;13991;51.174;4.438;2023-05-16T03:56:19;11.00;99.90
26081;DHT22;13991;51.174;4.438;2023-05-16T03:58:46;10.80;99.90
26081;DHT22;13991;51.174;4.438;2023-05-16T04:01:13;10.90;99.90
26081;DHT22;13991;51.174;4.438;2023-05-16T04:03:38;10.80;99.90
26081;DHT22;13991;51.174;4.438;2023-05-16T04:06:05;11.00;99.90
26081;DHT22;13991;51.174;4.438;2023-05-16T04:08:31;10.80;99.90
26081;DHT22;13991;51.174;4.438;2023-05-16T04:10:57;10.70;99.90
26081;DHT22;13991;51.174;4.438;2023-05-16T04:13:22;10.70;99.90
26081;DHT22;13991;51.174;4.438;2023-05-16T04:15:48;10.70;99.90
26081;DHT22;13991;51.174;4.438;2023-05-16T04:18:14;10.80;99.90
26081;DHT22;13991;51.174;4.438;2023-05-16T04:20:41;10.90;99.90
26081;DHT22;13991;51.174;4.438;2023-05-16T04:23:07;11.00;99.90
26081;DHT22;13991;51.174;4.438;2023-05-16T04:25:35;11.10;99.90
26081;DHT22;13991;51.174;4.438;2023-05-16T04:28:01;11.10;99.90
26081;DHT22;13991;51.174;4.438;2023-05-16T04:30:28;11.10;99.90
26081;DHT22;13991;51.174;4.438;2023-05-16T04:32:54;11.20;99.90
26081;DHT22;13991;51.174;4.438;2023-05-16T04:35:21;11.20;99.90
26081;DHT22;13991;51.174;4.438;2023-05-16T04:37:49;11.20;99.90
26081;DHT22;13991;51.174;4.438;2023-05-16T04:40:15;11.30;99.90
26081;DHT22;13991;51.174;4.438;2023-05-16T04:42:41;11.20;99.90
26081;DHT22;13991;51.174;4.438;2023-05-16T04:45:07;11.30;99.90
26081;DHT22;13991;51.174;4.438;2023-05-16T04:47:35;11.30;99.90
26081;DHT22;13991;51.174;4.438;2023-05-16T04:50:02;11.40;99.90
26081;DHT22;13991;51.174;4.438;2023-05-16T04:52:28;11.50;99.90
26081;DHT22;13991;51.174;4.438;2023-05-16T04:54:54;11.50;99.90
26081;DHT22;13991;51.174;4.438;2023-05-16T04:57:20;11.50;99.90
26081;DHT22;13991;51.174;4.438;2023-05-16T04:59:46;11.40;99.90
26081;DHT22;13991;51.174;4.438;2023-05-16T05:02:11;11.40;99.90
26081;DHT22;13991;51.174;4.438;2023-05-16T05:04:37;11.40;99.90
26081;DHT22;13991;51.174;4.438;2023-05-16T05:07:03;11.40;99.90
26081;DHT22;13991;51.174;4.438;2023-05-16T05:09:28;11.40;99.90
26081;DHT22;13991;51.174;4.438;2023-05-16T05:11:54;11.50;99.90
26081;DHT22;13991;51.174;4.438;2023-05-16T05:14:20;11.60;99.90
26081;DHT22;13991;51.174;4.438;2023-05-16T05:16:46;11.50;99.90
26081;DHT22;13991;51.174;4.438;2023-05-16T05:19:11;11.60;99.90
26081;DHT22;13991;51.174;4.438;2023-05-16T05:21:37;11.70;99.90
26081;DHT22;13991;51.174;4.438;2023-05-16T05:24:03;11.80;99.90
26081;DHT22;13991;51.174;4.438;2023-05-16T05:26:29;11.80;99.90
26081;DHT22;13991;51.174;4.438;2023-05-16T05:28:55;11.80;99.90
26081;DHT22;13991;51.174;4.438;2023-05-16T05:31:20;11.80;99.90
26081;DHT22;13991;51.174;4.438;2023-05-16T05:33:46;12.00;99.90
26081;DHT22;13991;51.174;4.438;2023-05-16T05:36:12;12.00;99.90
26081;DHT22;13991;51.174;4.438;2023-05-16T05:38:37;12.00;99.90
26081;DHT22;13991;51.174;4.438;2023-05-16T05:41:04;12.10;99.90
26081;DHT22;13991;51.174;4.438;2023-05-16T05:43:30;12.10;99.90
26081;DHT22;13991;51.174;4.438;2023-05-16T05:45:55;12.10;99.90
26081;DHT22;13991;51.174;4.438;2023-05-16T05:48:21;12.10;99.90
26081;DHT22;13991;51.174;4.438;2023-05-16T05:50:47;12.10;99.90
26081;DHT22;13991;51.174;4.438;2023-05-16T05:53:13;12.20;99.90
26081;DHT22;13991;51.174;4.438;2023-05-16T05:55:38;12.10;99.90
26081;DHT22;13991;51.174;4.438;2023-05-16T05:58:06;12.30;99.90
26081;DHT22;13991;51.174;4.438;2023-05-16T06:00:32;12.40;99.90
26081;DHT22;13991;51.174;4.438;2023-05-16T06:02:58;12.40;99.90
26081;DHT22;13991;51.174;4.438;2023-05-16T06:05:23;12.40;99.90
26081;DHT22;13991;51.174;4.438;2023-05-16T06:07:49;12.60;99.90
26081;DHT22;13991;51.174;4.438;2023-05-16T06:10:15;12.60;99.90
26081;DHT22;13991;51.174;4.438;2023-05-16T06:12:40;12.70;99.90
26081;DHT22;13991;51.174;4.438;2023-05-16T06:15:07;12.70;99.90
26081;DHT22;13991;51.174;4.438;2023-05-16T06:17:33;12.70;99.90
26081;DHT22;13991;51.174;4.438;2023-05-16T06:19:58;12.70;99.90
26081;DHT22;13991;51.174;4.438;2023-05-16T06:22:24;12.90;99.90
26081;DHT22;13991;51.174;4.438;2023-05-16T06:24:50;13.30;99.90
26081;DHT22;13991;51.174;4.438;2023-05-16T06:27:15;13.50;99.90
26081;DHT22;13991;51.174;4.438;2023-05-16T06:29:41;13.60;99.90
26081;DHT22;13991;51.174;4.438;2023-05-16T06:32:07;13.70;99.90
26081;DHT22;13991;51.174;4.438;2023-05-16T06:34:32;14.00;99.90
26081;DHT22;13991;51.174;4.438;2023-05-16T06:36:58;14.20;99.90
26081;DHT22;13991;51.174;4.438;2023-05-16T06:39:24;14.30;99.90
26081;DHT22;13991;51.174;4.438;2023-05-16T06:41:50;14.40;99.90
26081;DHT22;13991;51.174;4.438;2023-05-16T06:44:17;14.20;99.90
26081;DHT22;13991;51.174;4.438;2023-05-16T06:46:43;14.30;99.90
26081;DHT22;13991;51.174;4.438;2023-05-16T06:49:09;14.20;99.90
26081;DHT22;13991;51.174;4.438;2023-05-16T06:51:35;14.00;99.90
26081;DHT22;13991;51.174;4.438;2023-05-16T06:54:01;13.80;99.90
26081;DHT22;13991;51.174;4.438;2023-05-16T06:56:30;13.70;99.90
26081;DHT22;13991;51.174;4.438;2023-05-16T06:58:56;13.60;99.90
26081;DHT22;13991;51.174;4.438;2023-05-16T07:01:22;13.50;99.90
26081;DHT22;13991;51.174;4.438;2023-05-16T07:03:47;13.60;99.90
26081;DHT22;13991;51.174;4.438;2023-05-16T07:06:15;13.50;99.90
26081;DHT22;13991;51.174;4.438;2023-05-16T07:08:41;13.40;99.90
26081;DHT22;13991;51.174;4.438;2023-05-16T07:11:06;13.30;99.90
26081;DHT22;13991;51.174;4.438;2023-05-16T07:13:32;13.30;99.90
26081;DHT22;13991;51.174;4.438;2023-05-16T07:15:58;13.30;99.90
26081;DHT22;13991;51.174;4.438;2023-05-16T07:18:24;13.20;99.90
26081;DHT22;13991;51.174;4.438;2023-05-16T07:20:49;13.30;99.90
26081;DHT22;13991;51.174;4.438;2023-05-16T07:23:15;13.20;99.90
26081;DHT22;13991;51.174;4.438;2023-05-16T07:25:41;13.30;99.90
26081;DHT22;13991;51.174;4.438;2023-05-16T07:28:07;13.30;99.90
26081;DHT22;13991;51.174;4.438;2023-05-16T07:30:33;13.30;99.90
26081;DHT22;13991;51.174;4.438;2023-05-16T07:32:59;13.30;99.90
26081;DHT22;13991;51.174;4.438;2023-05-16T07:35:25;13.40;99.90
26081;DHT22;13991;51.174;4.438;2023-05-16T07:37:51;13.60;99.90
26081;DHT22;13991;51.174;4.438;2023-05-16T07:40:16;13.60;99.90
26081;DHT22;13991;51.174;4.438;2023-05-16T07:42:43;13.60;99.90
26081;DHT22;13991;51.174;4.438;2023-05-16T07:45:09;13.40;99.90
26081;DHT22;13991;51.174;4.438;2023-05-16T07:47:34;13.40;99.90
26081;DHT22;13991;51.174;4.438;2023-05-16T07:50:00;13.50;99.90
26081;DHT22;13991;51.174;4.438;2023-05-16T07:52:26;13.40;99.90
26081;DHT22;13991;51.174;4.438;2023-05-16T07:54:52;13.60;99.90
26081;DHT22;13991;51.174;4.438;2023-05-16T07:57:18;13.70;99.90
26081;DHT22;13991;51.174;4.438;2023-05-16T07:59:44;13.60;99.90
26081;DHT22;13991;51.174;4.438;2023-05-16T08:02:11;13.50;99.90
26081;DHT22;13991;51.174;4.438;2023-05-16T08:04:37;13.70;99.90
26081;DHT22;13991;51.174;4.438;2023-05-16T08:07:02;13.70;99.90
26081;DHT22;13991;51.174;4.438;2023-05-16T08:09:28;13.70;99.90
26081;DHT22;13991;51.174;4.438;2023-05-16T08:11:56;13.80;99.90
26081;DHT22;13991;51.174;4.438;2023-05-16T08:14:23;14.00;99.90
26081;DHT22;13991;51.174;4.438;2023-05-16T08:16:48;14.10;99.90
26081;DHT22;13991;51.174;4.438;2023-05-16T08:19:14;13.80;99.90
26081;DHT22;13991;51.174;4.438;2023-05-16T08:21:40;13.90;99.90
26081;DHT22;13991;51.174;4.438;2023-05-16T08:24:13;13.90;99.90
26081;DHT22;13991;51.174;4.438;2023-05-16T08:26:39;14.00;99.90
26081;DHT22;13991;51.174;4.438;2023-05-16T08:29:11;13.60;99.90
26081;DHT22;13991;51.174;4.438;2023-05-16T08:31:38;13.80;99.90
26081;DHT22;13991;51.174;4.438;2023-05-16T08:34:04;13.90;99.90
26081;DHT22;13991;51.174;4.438;2023-05-16T08:36:32;14.20;99.90
26081;DHT22;13991;51.174;4.438;2023-05-16T08:39:00;14.60;99.90
26081;DHT22;13991;51.174;4.438;2023-05-16T08:41:25;14.70;99.90
26081;DHT22;13991;51.174;4.438;2023-05-16T08:43:52;14.80;99.90
26081;DHT22;13991;51.174;4.438;2023-05-16T08:46:21;14.70;99.90
26081;DHT22;13991;51.174;4.438;2023-05-16T08:48:51;14.50;99.90
26081;DHT22;13991;51.174;4.438;2023-05-16T08:51:21;14.60;99.90
26081;DHT22;13991;51.174;4.438;2023-05-16T08:53:56;14.90;99.90
26081;DHT22;13991;51.174;4.438;2023-05-16T08:56:30;14.90;99.90
26081;DHT22;13991;51.174;4.438;2023-05-16T08:59:06;14.90;99.90
26081;DHT22;13991;51.174;4.438;2023-05-16T09:01:35;14.70;99.90
26081;DHT22;13991;51.174;4.438;2023-05-16T09:04:03;14.60;99.90
26081;DHT22;13991;51.174;4.438;2023-05-16T09:06:30;14.70;99.90
26081;DHT22;13991;51.174;4.438;2023-05-16T09:08:59;15.00;99.90
26081;DHT22;13991;51.174;4.438;2023-05-16T09:11:27;15.20;99.90
26081;DHT22;13991;51.174;4.438;2023-05-16T09:13:55;14.70;99.90
26081;DHT22;13991;51.174;4.438;2023-05-16T09:16:21;14.80;99.90
26081;DHT22;13991;51.174;4.438;2023-05-16T09:18:58;14.90;99.90
26081;DHT22;13991;51.174;4.438;2023-05-16T09:21:29;15.20;99.90
26081;DHT22;13991;51.174;4.438;2023-05-16T09:24:01;15.50;99.90
26081;DHT22;13991;51.174;4.438;2023-05-16T09:26:28;15.40;99.90
26081;DHT22;13991;51.174;4.438;2023-05-16T09:29:19;15.40;99.90
26081;DHT22;13991;51.174;4.438;2023-05-16T09:31:48;15.70;99.90
26081;DHT22;13991;51.174;4.438;2023-05-16T09:34:14;15.90;99.90
26081;DHT22;13991;51.174;4.438;2023-05-16T09:36:40;16.30;99.90
26081;DHT22;13991;51.174;4.438;2023-05-16T09:39:06;16.30;99.90
26081;DHT22;13991;51.174;4.438;2023-05-16T09:44:06;15.90;99.90
26081;DHT22;13991;51.174;4.438;2023-05-16T09:46:33;16.20;99.90
26081;DHT22;13991;51.174;4.438;2023-05-16T09:51:35;16.80;99.90
26081;DHT22;13991;51.174;4.438;2023-05-16T09:57:39;16.40;99.90
26081;DHT22;13991;51.174;4.438;2023-05-16T10:00:23;16.00;99.90
26081;DHT22;13991;51.174;4.438;2023-05-16T10:03:02;16.00;99.90
26081;DHT22;13991;51.174;4.438;2023-05-16T10:05:45;16.10;99.90
26081;DHT22;13991;51.174;4.438;2023-05-16T10:16:50;15.70;99.90
26081;DHT22;13991;51.174;4.438;2023-05-16T10:22:11;15.90;99.90
26081;DHT22;13991;51.174;4.438;2023-05-16T10:27:14;15.90;99.90
26081;DHT22;13991;51.174;4.438;2023-05-16T10:29:52;16.10;99.90
26081;DHT22;13991;51.174;4.438;2023-05-16T10:32:25;16.20;99.90
26081;DHT22;13991;51.174;4.438;2023-05-16T10:38:21;16.50;99.90
26081;DHT22;13991;51.174;4.438;2023-05-16T10:44:11;15.60;99.90
26081;DHT22;13991;51.174;4.438;2023-05-16T10:49:33;15.90;99.90
26081;DHT22;13991;51.174;4.438;2023-05-16T10:52:06;16.30;99.90
26081;DHT22;13991;51.174;4.438;2023-05-16T10:54:41;16.50;99.90
26081;DHT22;13991;51.174;4.438;2023-05-16T10:57:15;16.40;99.90
26081;DHT22;13991;51.174;4.438;2023-05-16T10:59:46;16.10;99.90
26081;DHT22;13991;51.174;4.438;2023-05-16T11:02:31;16.20;99.90
26081;DHT22;13991;51.174;4.438;2023-05-16T11:04:59;16.40;99.90
26081;DHT22;13991;51.174;4.438;2023-05-16T11:07:33;16.30;99.90
26081;DHT22;13991;51.174;4.438;2023-05-16T11:10:08;16.00;99.90
26081;DHT22;13991;51.174;4.438;2023-05-16T11:12:47;16.40;99.90
26081;DHT22;13991;51.174;4.438;2023-05-16T11:15:45;16.80;99.90
26081;DHT22;13991;51.174;4.438;2023-05-16T11:22:05;16.70;99.90
26081;DHT22;13991;51.174;4.438;2023-05-16T11:24:36;15.90;99.90
26081;DHT22;13991;51.174;4.438;2023-05-16T11:27:04;15.60;99.90
26081;DHT22;13991;51.174;4.438;2023-05-16T11:29:54;15.50;99.90
26081;DHT22;13991;51.174;4.438;2023-05-16T11:32:25;15.80;99.90
26081;DHT22;13991;51.174;4.438;2023-05-16T11:38:22;16.30;99.90
26081;DHT22;13991;51.174;4.438;2023-05-16T11:40:48;16.70;99.90
26081;DHT22;13991;51.174;4.438;2023-05-16T11:43:17;16.90;99.40
26081;DHT22;13991;51.174;4.438;2023-05-16T11:45:43;17.30;99.90
26081;DHT22;13991;51.174;4.438;2023-05-16T11:48:12;17.40;99.60
26081;DHT22;13991;51.174;4.438;2023-05-16T11:50:39;17.60;98.90
26081;DHT22;13991;51.174;4.438;2023-05-16T11:53:05;17.40;96.70
26081;DHT22;13991;51.174;4.438;2023-05-16T11:55:32;17.20;97.70
26081;DHT22;13991;51.174;4.438;2023-05-16T11:57:59;17.10;98.30
26081;DHT22;13991;51.174;4.438;2023-05-16T12:00:28;16.70;98.40
26081;DHT22;13991;51.174;4.438;2023-05-16T12:03:17;16.70;99.10
26081;DHT22;13991;51.174;4.438;2023-05-16T12:05:51;16.50;98.40
26081;DHT22;13991;51.174;4.438;2023-05-16T12:08:37;16.30;99.60
26081;DHT22;13991;51.174;4.438;2023-05-16T12:11:05;16.50;99.90
26081;DHT22;13991;51.174;4.438;2023-05-16T12:13:31;16.70;99.90
26081;DHT22;13991;51.174;4.438;2023-05-16T12:16:07;16.80;99.40
26081;DHT22;13991;51.174;4.438;2023-05-16T12:18:36;17.00;99.80
26081;DHT22;13991;51.174;4.438;2023-05-16T12:21:11;16.70;99.30
26081;DHT22;13991;51.174;4.438;2023-05-16T12:23:37;16.40;99.60
26081;DHT22;13991;51.174;4.438;2023-05-16T12:26:14;16.40;99.90
26081;DHT22;13991;51.174;4.438;2023-05-16T12:28:52;16.40;99.90
26081;DHT22;13991;51.174;4.438;2023-05-16T12:31:35;16.50;99.90
26081;DHT22;13991;51.174;4.438;2023-05-16T12:34:04;16.40;99.90
26081;DHT22;13991;51.174;4.438;2023-05-16T12:36:32;16.30;99.90
26081;DHT22;13991;51.174;4.438;2023-05-16T12:39:11;16.20;99.90
26081;DHT22;13991;51.174;4.438;2023-05-16T12:41:45;15.90;99.90
26081;DHT22;13991;51.174;4.438;2023-05-16T12:44:28;15.90;99.90
26081;DHT22;13991;51.174;4.438;2023-05-16T12:47:10;16.10;99.90
26081;DHT22;13991;51.174;4.438;2023-05-16T12:50:08;16.60;99.40
26081;DHT22;13991;51.174;4.438;2023-05-16T12:53:03;16.70;99.00
26081;DHT22;13991;51.174;4.438;2023-05-16T12:55:38;17.00;98.70
26081;DHT22;13991;51.174;4.438;2023-05-16T12:58:06;17.00;99.10
26081;DHT22;13991;51.174;4.438;2023-05-16T13:00:40;16.90;99.00
26081;DHT22;13991;51.174;4.438;2023-05-16T13:03:08;16.90;97.80
26081;DHT22;13991;51.174;4.438;2023-05-16T13:05:34;17.50;96.70
26081;DHT22;13991;51.174;4.438;2023-05-16T13:08:00;17.90;96.50
26081;DHT22;13991;51.174;4.438;2023-05-16T13:10:27;17.80;95.90
26081;DHT22;13991;51.174;4.438;2023-05-16T13:12:52;17.70;96.10
26081;DHT22;13991;51.174;4.438;2023-05-16T13:15:18;18.00;96.00
26081;DHT22;13991;51.174;4.438;2023-05-16T13:17:44;18.40;95.80
26081;DHT22;13991;51.174;4.438;2023-05-16T13:20:09;18.20;94.00
26081;DHT22;13991;51.174;4.438;2023-05-16T13:22:40;18.00;94.10
26081;DHT22;13991;51.174;4.438;2023-05-16T13:25:06;18.10;94.60
26081;DHT22;13991;51.174;4.438;2023-05-16T13:27:33;18.30;94.10
26081;DHT22;13991;51.174;4.438;2023-05-16T13:29:59;17.80;95.10
26081;DHT22;13991;51.174;4.438;2023-05-16T13:32:25;18.00;95.20
26081;DHT22;13991;51.174;4.438;2023-05-16T13:34:51;17.90;94.50
26081;DHT22;13991;51.174;4.438;2023-05-16T13:37:17;18.00;94.40
26081;DHT22;13991;51.174;4.438;2023-05-16T13:39:43;18.10;94.00
26081;DHT22;13991;51.174;4.438;2023-05-16T13:42:09;17.80;94.00
26081;DHT22;13991;51.174;4.438;2023-05-16T13:44:35;17.70;94.10
26081;DHT22;13991;51.174;4.438;2023-05-16T13:47:01;17.60;93.30
26081;DHT22;13991;51.174;4.438;2023-05-16T13:49:27;17.80;92.30
26081;DHT22;13991;51.174;4.438;2023-05-16T13:51:53;17.80;91.50
26081;DHT22;13991;51.174;4.438;2023-05-16T13:54:19;17.60;91.60
26081;DHT22;13991;51.174;4.438;2023-05-16T13:56:47;17.60;92.80
26081;DHT22;13991;51.174;4.438;2023-05-16T13:59:13;17.50;92.70
26081;DHT22;13991;51.174;4.438;2023-05-16T14:01:38;17.40;92.80
26081;DHT22;13991;51.174;4.438;2023-05-16T14:04:04;17.50;93.90
26081;DHT22;13991;51.174;4.438;2023-05-16T14:06:30;17.70;92.70
26081;DHT22;13991;51.174;4.438;2023-05-16T14:08:56;17.80;93.20
26081;DHT22;13991;51.174;4.438;2023-05-16T14:11:21;18.20;92.90
26081;DHT22;13991;51.174;4.438;2023-05-16T14:13:52;18.20;92.30
26081;DHT22;13991;51.174;4.438;2023-05-16T14:16:17;18.50;91.60
26081;DHT22;13991;51.174;4.438;2023-05-16T14:18:43;18.50;90.80
26081;DHT22;13991;51.174;4.438;2023-05-16T14:21:09;18.40;90.70
26081;DHT22;13991;51.174;4.438;2023-05-16T14:23:34;18.20;91.30
26081;DHT22;13991;51.174;4.438;2023-05-16T14:26:00;18.00;91.70
26081;DHT22;13991;51.174;4.438;2023-05-16T14:28:27;17.70;91.40
26081;DHT22;13991;51.174;4.438;2023-05-16T14:30:52;17.80;91.50
26081;DHT22;13991;51.174;4.438;2023-05-16T14:33:18;17.70;91.00
26081;DHT22;13991;51.174;4.438;2023-05-16T14:35:44;17.70;92.30
26081;DHT22;13991;51.174;4.438;2023-05-16T14:38:10;17.70;91.70
26081;DHT22;13991;51.174;4.438;2023-05-16T14:40:35;17.90;92.10
26081;DHT22;13991;51.174;4.438;2023-05-16T14:43:01;17.60;91.20
26081;DHT22;13991;51.174;4.438;2023-05-16T14:45:28;17.50;91.30
26081;DHT22;13991;51.174;4.438;2023-05-16T14:47:54;17.40;91.20
26081;DHT22;13991;51.174;4.438;2023-05-16T14:50:20;17.30;92.20
26081;DHT22;13991;51.174;4.438;2023-05-16T14:52:46;17.40;92.70
26081;DHT22;13991;51.174;4.438;2023-05-16T14:55:11;17.60;92.60
26081;DHT22;13991;51.174;4.438;2023-05-16T14:57:39;17.60;92.60
26081;DHT22;13991;51.174;4.438;2023-05-16T15:00:07;17.60;92.30
26081;DHT22;13991;51.174;4.438;2023-05-16T15:02:35;17.80;92.60
26081;DHT22;13991;51.174;4.438;2023-05-16T15:05:00;17.90;92.80
26081;DHT22;13991;51.174;4.438;2023-05-16T15:07:26;17.90;92.00
26081;DHT22;13991;51.174;4.438;2023-05-16T15:09:52;17.50;91.70
26081;DHT22;13991;51.174;4.438;2023-05-16T15:12:17;17.10;92.80
26081;DHT22;13991;51.174;4.438;2023-05-16T15:14:43;17.00;93.70
26081;DHT22;13991;51.174;4.438;2023-05-16T15:17:11;16.80;94.20
26081;DHT22;13991;51.174;4.438;2023-05-16T15:19:38;17.30;94.30
26081;DHT22;13991;51.174;4.438;2023-05-16T15:22:04;17.20;93.80
26081;DHT22;13991;51.174;4.438;2023-05-16T15:24:33;17.20;94.00
26081;DHT22;13991;51.174;4.438;2023-05-16T15:26:58;17.30;94.00
26081;DHT22;13991;51.174;4.438;2023-05-16T15:29:25;17.30;93.70
26081;DHT22;13991;51.174;4.438;2023-05-16T15:34:27;17.60;93.70
26081;DHT22;13991;51.174;4.438;2023-05-16T15:36:53;17.50;93.60
26081;DHT22;13991;51.174;4.438;2023-05-16T15:39:22;17.30;94.20
26081;DHT22;13991;51.174;4.438;2023-05-16T15:41:52;17.40;93.70
26081;DHT22;13991;51.174;4.438;2023-05-16T15:44:18;17.50;93.50
26081;DHT22;13991;51.174;4.438;2023-05-16T15:46:44;17.50;93.30
26081;DHT22;13991;51.174;4.438;2023-05-16T15:49:10;17.40;92.70
26081;DHT22;13991;51.174;4.438;2023-05-16T15:51:37;17.10;93.10
26081;DHT22;13991;51.174;4.438;2023-05-16T15:54:03;17.40;92.70
26081;DHT22;13991;51.174;4.438;2023-05-16T15:56:32;17.30;92.70
26081;DHT22;13991;51.174;4.438;2023-05-16T15:59:00;17.20;93.20
26081;DHT22;13991;51.174;4.438;2023-05-16T16:01:29;17.20;93.00
26081;DHT22;13991;51.174;4.438;2023-05-16T16:03:55;17.10;93.30
26081;DHT22;13991;51.174;4.438;2023-05-16T16:06:22;17.60;93.10
26081;DHT22;13991;51.174;4.438;2023-05-16T16:08:48;17.80;92.70
26081;DHT22;13991;51.174;4.438;2023-05-16T16:11:14;17.80;92.40
26081;DHT22;13991;51.174;4.438;2023-05-16T16:13:41;17.90;92.20
26081;DHT22;13991;51.174;4.438;2023-05-16T16:16:07;17.60;92.30
26081;DHT22;13991;51.174;4.438;2023-05-16T16:18:33;17.60;91.90
26081;DHT22;13991;51.174;4.438;2023-05-16T16:20:59;17.60;92.10
26081;DHT22;13991;51.174;4.438;2023-05-16T16:23:25;17.50;92.30